createdAt,value
2022-08-17T00:00:08.114Z,0
2022-08-17T00:01:07.727Z,0
2022-08-17T00:02:22.445Z,0.109
2022-08-17T00:03:07.220Z,0.109
2022-08-17T00:04:11.789Z,0.109
2022-08-17T00:05:07.161Z,0
2022-08-17T00:06:06.832Z,0
2022-08-17T00:07:06.751Z,0.219
2022-08-17T00:08:06.753Z,0.449
2022-08-17T00:09:07.544Z,0
2022-08-17T00:10:07.034Z,0
2022-08-17T00:11:06.895Z,0
2022-08-17T00:12:42.807Z,0
2022-08-17T00:13:07.173Z,0.109
2022-08-17T00:14:07.009Z,0.109
2022-08-17T00:15:08.342Z,0
2022-08-17T00:16:06.925Z,0
2022-08-17T00:17:06.952Z,0
2022-08-17T00:19:06.281Z,0
2022-08-17T00:19:08.664Z,0.219
2022-08-17T00:20:07.315Z,0
2022-08-17T00:21:10.490Z,0.109
2022-08-17T00:22:34.159Z,0
2022-08-17T00:23:07.240Z,0.109
2022-08-17T00:24:07.417Z,0.109
2022-08-17T00:25:07.729Z,0
2022-08-17T00:26:07.050Z,0.100
2022-08-17T00:27:07.682Z,0.109
2022-08-17T00:28:07.148Z,0.119
2022-08-17T00:29:07.372Z,0.100
2022-08-17T00:30:07.714Z,0.119
2022-08-17T00:31:07.213Z,0.109
2022-08-17T00:33:12.651Z,0
2022-08-17T00:33:15.572Z,0
2022-08-17T00:34:07.649Z,0.109
2022-08-17T00:35:07.161Z,0
2022-08-17T00:36:07.610Z,0
2022-08-17T00:37:07.235Z,0
2022-08-17T00:38:07.385Z,0.109
2022-08-17T00:39:07.573Z,0.109
2022-08-17T00:40:07.698Z,0
2022-08-17T00:41:07.414Z,0
2022-08-17T00:42:07.455Z,0
2022-08-17T00:43:07.769Z,0
2022-08-17T00:44:07.518Z,0
2022-08-17T00:45:07.909Z,0
2022-08-17T00:46:07.367Z,0
2022-08-17T00:47:07.320Z,0.109
2022-08-17T00:48:07.546Z,0
2022-08-17T00:49:07.445Z,0
2022-08-17T00:50:07.543Z,0
2022-08-17T00:51:07.354Z,0
2022-08-17T00:52:10.845Z,0
2022-08-17T00:53:07.464Z,0
2022-08-17T00:54:07.401Z,0
2022-08-17T00:55:07.641Z,0.109
2022-08-17T00:56:06.950Z,0.109
2022-08-17T00:57:07.091Z,0
2022-08-17T00:58:07.490Z,0.109
2022-08-17T00:59:07.377Z,0.109
2022-08-17T01:00:08.479Z,0
2022-08-17T01:01:07.432Z,0
2022-08-17T01:02:07.046Z,0.109
2022-08-17T01:03:07.462Z,0.109
2022-08-17T01:04:07.659Z,0
2022-08-17T01:05:07.289Z,0.109
2022-08-17T01:06:07.310Z,0
2022-08-17T01:07:07.474Z,0.340
2022-08-17T01:08:07.725Z,0
2022-08-17T01:09:07.398Z,0
2022-08-17T01:10:07.597Z,0
2022-08-17T01:11:07.524Z,0
2022-08-17T01:12:08.083Z,0.109
2022-08-17T01:13:07.415Z,0
2022-08-17T01:14:07.209Z,0
2022-08-17T01:15:08.189Z,0.219
2022-08-17T01:16:07.639Z,0.219
2022-08-17T01:17:07.137Z,0.219
2022-08-17T01:18:07.377Z,0.109
2022-08-17T01:19:07.093Z,0.219
2022-08-17T01:20:07.748Z,0.219
2022-08-17T01:21:07.728Z,0.109
2022-08-17T01:22:06.999Z,0.340
2022-08-17T01:23:07.418Z,0.219
2022-08-17T01:24:07.052Z,0.560
2022-08-17T01:25:07.086Z,0
2022-08-17T01:26:06.993Z,0.219
2022-08-17T01:27:10.365Z,0.340
2022-08-17T01:28:06.837Z,0.449
2022-08-17T01:29:06.892Z,0.340
2022-08-17T01:30:58.802Z,0.219
2022-08-17T01:31:08.753Z,0.219
2022-08-17T01:32:07.151Z,0.109
2022-08-17T01:33:07.452Z,0.219
2022-08-17T01:34:07.525Z,0.560
2022-08-17T01:35:07.145Z,0.449
2022-08-17T01:36:12.152Z,0.219
2022-08-17T01:37:07.183Z,0.560
2022-08-17T01:38:07.191Z,0.449
2022-08-17T01:39:07.317Z,0.449
2022-08-17T01:40:07.417Z,0.340
2022-08-17T01:41:07.403Z,0.560
2022-08-17T01:42:07.510Z,0.449
2022-08-17T01:43:06.906Z,0.560
2022-08-17T01:44:07.163Z,0.219
2022-08-17T01:45:07.364Z,0.790
2022-08-17T01:46:07.902Z,0.219
2022-08-17T01:47:06.838Z,0.449
2022-08-17T01:48:06.907Z,0.449
2022-08-17T01:49:07.157Z,0.449
2022-08-17T01:50:06.948Z,0
2022-08-17T01:51:06.997Z,0.340
2022-08-17T01:52:07.023Z,0
2022-08-17T01:53:07.069Z,0.340
2022-08-17T01:54:07.065Z,0
2022-08-17T01:55:07.001Z,0.219
2022-08-17T01:56:07.586Z,0.219
2022-08-17T01:57:07.426Z,0.219
2022-08-17T01:58:07.214Z,0
2022-08-17T01:59:06.806Z,0
2022-08-17T02:00:07.722Z,0
2022-08-17T02:01:06.837Z,0
2022-08-17T02:02:07.014Z,0
2022-08-17T02:03:06.918Z,0
2022-08-17T02:04:07.276Z,0
2022-08-17T02:05:07.283Z,0.100
2022-08-17T02:06:26.940Z,0.119
2022-08-17T02:07:07.092Z,0.119
2022-08-17T02:08:07.141Z,0.100
2022-08-17T02:09:07.098Z,0
2022-08-17T02:10:19.842Z,0
2022-08-17T02:11:11.363Z,0.100
2022-08-17T02:12:47.444Z,0
2022-08-17T02:13:07.317Z,0
2022-08-17T02:14:07.368Z,0
2022-08-17T02:15:07.256Z,0
2022-08-17T02:16:07.395Z,0
2022-08-17T02:17:07.559Z,0
2022-08-17T02:18:07.544Z,0
2022-08-17T02:19:07.117Z,0.109
2022-08-17T02:20:07.545Z,0
2022-08-17T02:21:07.377Z,0
2022-08-17T02:22:07.543Z,0.109
2022-08-17T02:23:06.933Z,0.109
2022-08-17T02:24:07.414Z,0
2022-08-17T02:25:07.818Z,0
2022-08-17T02:26:07.181Z,0
2022-08-17T02:27:07.663Z,0
2022-08-17T02:28:07.097Z,0
2022-08-17T02:29:07.502Z,0
2022-08-17T02:30:59.851Z,0
2022-08-17T02:31:09.570Z,0
2022-08-17T02:32:07.243Z,0
2022-08-17T02:33:09.232Z,0
2022-08-17T02:34:07.122Z,0
2022-08-17T02:35:07.752Z,0
2022-08-17T02:36:06.897Z,0
2022-08-17T02:37:07.355Z,0
2022-08-17T02:38:07.463Z,0
2022-08-17T02:39:07.629Z,0
2022-08-17T02:40:07.140Z,0
2022-08-17T02:41:07.605Z,0
2022-08-17T02:42:07.587Z,0
2022-08-17T02:43:07.609Z,0
2022-08-17T02:44:07.481Z,0
2022-08-17T02:45:07.238Z,0
2022-08-17T02:46:07.382Z,0
2022-08-17T02:47:07.402Z,0
2022-08-17T02:48:07.590Z,0
2022-08-17T02:49:07.492Z,0
2022-08-17T02:50:07.660Z,0.109
2022-08-17T02:51:06.982Z,0
2022-08-17T02:52:06.855Z,0.219
2022-08-17T02:53:08.021Z,0.109
2022-08-17T02:54:41.806Z,0.109
2022-08-17T02:55:07.366Z,0
2022-08-17T02:56:07.492Z,0
2022-08-17T02:57:07.388Z,0
2022-08-17T02:58:07.670Z,0.109
2022-08-17T02:59:07.054Z,0.109
2022-08-17T03:00:08.464Z,0.109
2022-08-17T03:01:07.657Z,0.109
2022-08-17T03:02:07.088Z,0
2022-08-17T03:03:07.329Z,0.109
2022-08-17T03:04:07.486Z,0
2022-08-17T03:05:07.620Z,0.109
2022-08-17T03:06:07.204Z,0.109
2022-08-17T03:07:07.380Z,0.109
2022-08-17T03:08:06.953Z,0
2022-08-17T03:09:07.233Z,0
2022-08-17T03:10:07.542Z,0
2022-08-17T03:11:07.035Z,0
2022-08-17T03:12:07.304Z,0
2022-08-17T03:13:07.315Z,0
2022-08-17T03:14:07.467Z,0
2022-08-17T03:15:07.760Z,0
2022-08-17T03:16:07.031Z,0
2022-08-17T03:17:07.148Z,0
2022-08-17T03:18:07.155Z,0
2022-08-17T03:19:07.525Z,0
2022-08-17T03:20:07.716Z,0
2022-08-17T03:21:07.123Z,0
2022-08-17T03:22:35.712Z,0
2022-08-17T03:23:07.803Z,0
2022-08-17T03:24:08.941Z,0
2022-08-17T03:25:10.656Z,0
2022-08-17T03:26:07.206Z,0
2022-08-17T03:27:07.582Z,0
2022-08-17T03:28:07.197Z,0
2022-08-17T03:29:07.474Z,0
2022-08-17T03:30:07.642Z,0
2022-08-17T03:31:08.028Z,0
2022-08-17T03:32:07.181Z,0
2022-08-17T03:33:07.391Z,0
2022-08-17T03:34:07.410Z,0
2022-08-17T03:35:07.355Z,0
2022-08-17T03:36:07.496Z,13600
2022-08-17T03:37:07.016Z,0
2022-08-17T03:38:07.227Z,0
2022-08-17T03:39:07.261Z,13600
2022-08-17T03:40:07.383Z,13600
2022-08-17T03:41:06.930Z,0
2022-08-17T03:42:07.428Z,13600
2022-08-17T03:43:07.392Z,0
2022-08-17T03:44:07.504Z,13600
2022-08-17T03:45:07.834Z,13600
2022-08-17T03:46:27.340Z,13600
2022-08-17T03:47:07.816Z,13600
2022-08-17T03:48:07.122Z,13600
2022-08-17T03:49:07.157Z,13600
2022-08-17T03:50:10.355Z,0
2022-08-17T03:51:11.421Z,0
2022-08-17T03:52:07.464Z,0
2022-08-17T03:53:06.900Z,0
2022-08-17T03:54:07.741Z,0
2022-08-17T03:55:07.163Z,0.5
2022-08-17T03:56:07.313Z,0.170
2022-08-17T03:57:07.400Z,0
2022-08-17T03:58:07.368Z,0.219
2022-08-17T03:59:07.405Z,0.449
2022-08-17T04:00:08.328Z,0.600
2022-08-17T04:01:07.653Z,1.360
2022-08-17T04:02:06.880Z,0.899
2022-08-17T04:03:07.138Z,1.090
2022-08-17T04:04:07.195Z,1.960
2022-08-17T04:05:07.177Z,2.5
2022-08-17T04:06:06.802Z,2.470
2022-08-17T04:07:07.027Z,3.569
2022-08-17T04:08:07.257Z,3.829
2022-08-17T04:09:07.506Z,4.590
2022-08-17T04:10:07.243Z,5.659
2022-08-17T04:11:07.247Z,6.550
2022-08-17T04:12:07.552Z,7.460
2022-08-17T04:13:07.024Z,8.479
2022-08-17T04:14:07.632Z,9.239
2022-08-17T04:15:07.924Z,10.47
2022-08-17T04:16:07.570Z,11.72
2022-08-17T04:17:07.074Z,13.53
2022-08-17T04:18:07.697Z,15.34
2022-08-17T04:19:07.312Z,17.72
2022-08-17T04:20:07.506Z,20.79
2022-08-17T04:21:07.724Z,24.39
2022-08-17T04:22:07.517Z,28.20
2022-08-17T04:23:07.587Z,30.85
2022-08-17T04:24:07.973Z,31.20
2022-08-17T04:25:07.640Z,31.28
2022-08-17T04:26:07.114Z,32.15
2022-08-17T04:27:07.602Z,33.40
2022-08-17T04:28:07.651Z,37.20
2022-08-17T04:29:06.947Z,43
2022-08-17T04:30:07.716Z,50
2022-08-17T04:31:07.195Z,58.40
2022-08-17T04:32:07.362Z,66.80
2022-08-17T04:33:07.575Z,74.19
2022-08-17T04:34:07.275Z,82.59
2022-08-17T04:35:07.896Z,90.59
2022-08-17T04:36:07.208Z,98.80
2022-08-17T04:37:07.305Z,107.4
2022-08-17T04:38:07.993Z,116.5
2022-08-17T04:39:07.450Z,126
2022-08-17T04:40:07.616Z,135.8
2022-08-17T04:41:07.362Z,145.1
2022-08-17T04:42:07.359Z,153.6
2022-08-17T04:43:07.848Z,161.1
2022-08-17T04:44:07.480Z,170
2022-08-17T04:45:07.518Z,178.6
2022-08-17T04:46:07.544Z,185.6
2022-08-17T04:47:07.241Z,192.5
2022-08-17T04:48:07.459Z,199.6
2022-08-17T04:49:08.073Z,207.1
2022-08-17T04:50:07.632Z,215.1
2022-08-17T04:51:06.956Z,224
2022-08-17T04:52:07.615Z,234
2022-08-17T04:53:07.756Z,245
2022-08-17T04:54:07.351Z,260
2022-08-17T04:55:07.656Z,276
2022-08-17T04:56:07.398Z,296
2022-08-17T04:58:07.429Z,347
2022-08-17T04:59:07.813Z,370
2022-08-17T05:00:07.810Z,410
2022-08-17T05:01:07.616Z,440
2022-08-17T05:02:07.185Z,480
2022-08-17T05:03:07.422Z,530
2022-08-17T05:04:33.137Z,570
2022-08-17T05:05:07.768Z,610
2022-08-17T05:06:07.669Z,650
2022-08-17T05:07:07.795Z,684
2022-08-17T05:08:07.060Z,714
2022-08-17T05:09:07.875Z,740
2022-08-17T05:10:07.476Z,770
2022-08-17T05:11:07.165Z,808
2022-08-17T05:12:07.534Z,838
2022-08-17T05:13:08.111Z,870
2022-08-17T05:14:07.066Z,900
2022-08-17T05:15:07.553Z,938
2022-08-17T05:16:07.019Z,960
2022-08-17T05:17:11.181Z,971
2022-08-17T05:18:07.387Z,974.0
2022-08-17T05:19:07.520Z,972.9
2022-08-17T05:20:07.042Z,975.5
2022-08-17T05:21:07.740Z,988
2022-08-17T05:22:07.353Z,1008
2022-08-17T05:23:07.424Z,1030
2022-08-17T05:24:12.847Z,1070
2022-08-17T05:25:07.006Z,1110
2022-08-17T05:26:07.895Z,1150
2022-08-17T05:27:06.988Z,1180
2022-08-17T05:28:07.814Z,1194.
2022-08-17T05:29:07.715Z,1199.
2022-08-17T05:30:07.310Z,1201.
2022-08-17T05:31:07.757Z,1203.
2022-08-17T05:32:38.088Z,1206
2022-08-17T05:33:07.587Z,1210.
2022-08-17T05:34:07.524Z,1217.
2022-08-17T05:35:07.828Z,1226
2022-08-17T05:36:07.322Z,1237
2022-08-17T05:37:07.364Z,1248
2022-08-17T05:38:07.397Z,1261
2022-08-17T05:39:07.816Z,1276
2022-08-17T05:40:07.284Z,1299
2022-08-17T05:41:07.615Z,1340
2022-08-17T05:42:07.804Z,1400
2022-08-17T05:43:07.298Z,1460
2022-08-17T05:44:07.419Z,1520
2022-08-17T05:45:07.716Z,1570
2022-08-17T05:46:06.890Z,1610
2022-08-17T05:47:07.208Z,1650
2022-08-17T05:48:07.489Z,1680
2022-08-17T05:49:07.554Z,1681.
2022-08-17T05:50:09.589Z,1670
2022-08-17T05:51:07.257Z,1660.
2022-08-17T05:52:07.415Z,1658.
2022-08-17T05:53:07.755Z,1663
2022-08-17T05:54:07.013Z,1675
2022-08-17T05:55:08.087Z,1688
2022-08-17T05:56:10.885Z,1699
2022-08-17T05:57:07.770Z,1712
2022-08-17T05:58:07.073Z,1727
2022-08-17T05:59:07.386Z,1741
2022-08-17T06:00:08.439Z,1756
2022-08-17T06:01:07.316Z,1780
2022-08-17T06:02:07.894Z,1820
2022-08-17T06:03:07.774Z,1870
2022-08-17T06:04:07.203Z,1930
2022-08-17T06:05:08.035Z,2000
2022-08-17T06:06:07.533Z,2080
2022-08-17T06:07:07.884Z,2170
2022-08-17T06:08:07.921Z,2200
2022-08-17T06:09:07.570Z,2400
2022-08-17T06:10:07.371Z,2500
2022-08-17T06:11:07.902Z,2600
2022-08-17T06:12:08.281Z,2800
2022-08-17T06:13:07.223Z,2890
2022-08-17T06:14:07.577Z,2970
2022-08-17T06:15:08.238Z,3040
2022-08-17T06:16:33.213Z,3110
2022-08-17T06:17:07.937Z,3190
2022-08-17T06:18:07.683Z,3260
2022-08-17T06:19:07.975Z,3320
2022-08-17T06:20:07.525Z,3370
2022-08-17T06:21:07.941Z,3410
2022-08-17T06:22:07.690Z,3450
2022-08-17T06:23:06.829Z,3470
2022-08-17T06:24:06.867Z,3502
2022-08-17T06:25:10.277Z,3524
2022-08-17T06:26:07.481Z,3537
2022-08-17T06:27:07.145Z,3550
2022-08-17T06:28:07.690Z,3584
2022-08-17T06:29:08.235Z,3589
2022-08-17T06:30:08.084Z,3609
2022-08-17T06:31:07.534Z,3560
2022-08-17T06:32:07.726Z,3511
2022-08-17T06:33:07.672Z,3540
2022-08-17T06:34:07.289Z,3630
2022-08-17T06:35:08.406Z,3710
2022-08-17T06:36:09.585Z,3780
2022-08-17T06:37:07.537Z,3900
2022-08-17T06:38:07.372Z,4000
2022-08-17T06:39:07.498Z,4200
2022-08-17T06:40:07.391Z,4300
2022-08-17T06:41:08.007Z,4470
2022-08-17T06:42:07.613Z,4513.
2022-08-17T06:43:08.017Z,4515
2022-08-17T06:44:07.853Z,4550
2022-08-17T06:45:07.925Z,4560
2022-08-17T06:46:07.603Z,4400
2022-08-17T06:47:07.616Z,4300
2022-08-17T06:48:07.978Z,4200
2022-08-17T06:49:07.882Z,4090
2022-08-17T06:50:07.362Z,4030
2022-08-17T06:51:06.960Z,3970
2022-08-17T06:52:07.392Z,3870
2022-08-17T06:53:07.267Z,3700
2022-08-17T06:54:07.488Z,3600
2022-08-17T06:55:07.160Z,3500
2022-08-17T06:56:07.165Z,3400
2022-08-17T06:57:07.878Z,3300
2022-08-17T06:58:16.461Z,3200
2022-08-17T06:59:07.193Z,3110
2022-08-17T07:00:08.949Z,3030
2022-08-17T07:01:07.387Z,2996
2022-08-17T07:02:07.947Z,2993.
2022-08-17T07:03:08.187Z,3003
2022-08-17T07:04:11.956Z,3018
2022-08-17T07:05:08.078Z,3013
2022-08-17T07:06:07.517Z,2970
2022-08-17T07:07:07.605Z,2900
2022-08-17T07:08:07.106Z,2810
2022-08-17T07:09:07.865Z,2710
2022-08-17T07:10:07.333Z,2620
2022-08-17T07:11:07.885Z,2540
2022-08-17T07:12:07.404Z,2480
2022-08-17T07:13:07.604Z,2469.
2022-08-17T07:14:07.835Z,2469.
2022-08-17T07:15:07.623Z,2484
2022-08-17T07:16:07.245Z,2509
2022-08-17T07:17:07.724Z,2530
2022-08-17T07:18:07.363Z,2543
2022-08-17T07:19:07.807Z,2560
2022-08-17T07:20:07.673Z,2590
2022-08-17T07:21:07.722Z,2620
2022-08-17T07:22:07.086Z,2637.
2022-08-17T07:23:07.385Z,2635
2022-08-17T07:24:08.100Z,2600
2022-08-17T07:25:07.546Z,2540
2022-08-17T07:26:06.993Z,2400
2022-08-17T07:27:07.362Z,2370
2022-08-17T07:28:07.932Z,2380
2022-08-17T07:29:07.841Z,2500
2022-08-17T07:30:10.673Z,2800
2022-08-17T07:31:07.353Z,3000
2022-08-17T07:32:08.007Z,3400
2022-08-17T07:33:07.370Z,3600
2022-08-17T07:34:07.253Z,3620
2022-08-17T07:35:07.027Z,3400
2022-08-17T07:36:07.742Z,3200
2022-08-17T07:37:07.178Z,3000
2022-08-17T07:38:07.274Z,2950
2022-08-17T07:39:07.312Z,2913
2022-08-17T07:40:16.338Z,2960
2022-08-17T07:41:07.224Z,2997
2022-08-17T07:42:07.816Z,2940
2022-08-17T07:43:07.654Z,2800
2022-08-17T07:44:07.412Z,2600
2022-08-17T07:45:08.483Z,2500
2022-08-17T07:46:06.969Z,2400
2022-08-17T07:47:07.936Z,2300
2022-08-17T07:48:07.757Z,2100
2022-08-17T07:49:08.220Z,1900
2022-08-17T07:50:07.476Z,1800
2022-08-17T07:51:07.254Z,1700
2022-08-17T07:52:47.683Z,1600
2022-08-17T07:53:07.803Z,1400
2022-08-17T07:54:14.633Z,1300
2022-08-17T07:55:07.258Z,1210
2022-08-17T07:56:07.622Z,1150
2022-08-17T07:57:07.190Z,1110
2022-08-17T07:58:08.014Z,1092
2022-08-17T07:59:07.777Z,1082.
2022-08-17T08:00:13.487Z,1077.
2022-08-17T08:01:07.419Z,1067
2022-08-17T08:02:07.833Z,1060.
2022-08-17T08:03:07.476Z,1070
2022-08-17T08:04:07.190Z,1111
2022-08-17T08:05:08.832Z,1127.
2022-08-17T08:06:08.105Z,1131.
2022-08-17T08:07:07.734Z,1150
2022-08-17T08:08:07.487Z,1200
2022-08-17T08:09:07.190Z,1300
2022-08-17T08:10:07.738Z,1600
2022-08-17T08:11:06.970Z,1000
2022-08-17T08:12:07.878Z,2000
2022-08-17T08:13:07.673Z,2500
2022-08-17T08:14:07.836Z,2710
2022-08-17T08:15:07.526Z,2768
2022-08-17T08:16:07.206Z,2730
2022-08-17T08:17:09.329Z,2600
2022-08-17T08:18:07.551Z,2300
2022-08-17T08:19:08.134Z,2100
2022-08-17T08:20:37.865Z,2070
2022-08-17T08:21:07.412Z,1980
2022-08-17T08:22:07.306Z,1890
2022-08-17T08:23:07.277Z,1830
2022-08-17T08:24:08.371Z,1790
2022-08-17T08:25:08.131Z,1720
2022-08-17T08:26:07.348Z,1600
2022-08-17T08:27:07.417Z,1550
2022-08-17T08:28:07.230Z,1512
2022-08-17T08:29:07.754Z,1510
2022-08-17T08:30:08.654Z,1570
2022-08-17T08:31:07.494Z,1660
2022-08-17T08:32:08.297Z,1720
2022-08-17T08:33:07.326Z,1748.
2022-08-17T08:34:07.943Z,1742
2022-08-17T08:35:07.956Z,1733
2022-08-17T08:36:07.599Z,1715
2022-08-17T08:37:17.617Z,1688
2022-08-17T08:38:07.953Z,1677
2022-08-17T08:39:07.729Z,1685
2022-08-17T08:40:07.512Z,1720
2022-08-17T08:41:07.492Z,1790
2022-08-17T08:42:07.584Z,1900
2022-08-17T08:43:07.216Z,2000
2022-08-17T08:44:07.775Z,2100
2022-08-17T08:45:08.153Z,2250
2022-08-17T08:46:08.008Z,2299
2022-08-17T08:47:07.532Z,2289
2022-08-17T08:48:23.078Z,2300
2022-08-17T08:49:12.032Z,2350
2022-08-17T08:50:07.467Z,2430
2022-08-17T08:51:08.566Z,2510
2022-08-17T08:52:07.583Z,2570
2022-08-17T08:53:07.287Z,2580
2022-08-17T08:54:07.714Z,2400
2022-08-17T08:55:07.614Z,2200
2022-08-17T08:56:07.624Z,2000
2022-08-17T08:57:26.695Z,1960
2022-08-17T08:58:08.272Z,1880
2022-08-17T08:59:07.042Z,1700
2022-08-17T09:00:08.731Z,1500
2022-08-17T09:01:07.150Z,1450
2022-08-17T09:02:07.553Z,1370
2022-08-17T09:03:07.314Z,1340
2022-08-17T09:04:23.227Z,1313
2022-08-17T09:05:15.831Z,1288
2022-08-17T09:06:32.175Z,1260
2022-08-17T09:07:07.039Z,1226
2022-08-17T09:08:07.327Z,1217.
2022-08-17T09:09:07.405Z,1234
2022-08-17T09:10:07.181Z,1248.
2022-08-17T09:11:07.745Z,1257
2022-08-17T09:12:07.238Z,1290
2022-08-17T09:13:10.132Z,1300
2022-08-17T09:14:07.136Z,1400
2022-08-17T09:15:12.724Z,1600
2022-08-17T09:16:07.266Z,1700
2022-08-17T09:17:08.048Z,1761
2022-08-17T09:19:00.840Z,1740
2022-08-17T09:19:09.119Z,1600
2022-08-17T09:20:07.724Z,1500
2022-08-17T09:21:07.114Z,1450
2022-08-17T09:22:07.402Z,1405
2022-08-17T09:23:07.609Z,1410
2022-08-17T09:24:07.189Z,1470
2022-08-17T09:25:07.630Z,1520
2022-08-17T09:26:07.120Z,1556
2022-08-17T09:27:07.516Z,1600
2022-08-17T09:28:07.746Z,1700
2022-08-17T09:29:07.220Z,1900
2022-08-17T09:30:08.046Z,2000.
2022-08-17T09:31:07.342Z,2010
2022-08-17T09:32:07.305Z,2100
2022-08-17T09:33:07.582Z,2000
2022-08-17T09:34:07.600Z,2000
2022-08-17T09:35:07.181Z,3000
2022-08-17T09:36:07.838Z,3000
2022-08-17T09:37:07.612Z,4000
2022-08-17T09:38:07.338Z,5000
2022-08-17T09:39:07.780Z,5000
2022-08-17T09:40:07.592Z,6000
2022-08-17T09:41:07.181Z,7000
2022-08-17T09:42:07.546Z,8000
2022-08-17T09:43:06.836Z,8000
2022-08-17T09:44:12.103Z,9000
2022-08-17T09:45:07.788Z,9700
2022-08-17T09:46:07.174Z,10000
2022-08-17T09:47:07.894Z,10200
2022-08-17T09:48:07.579Z,10340
2022-08-17T09:49:07.393Z,10400
2022-08-17T09:50:07.523Z,10500
2022-08-17T09:51:07.305Z,10500
2022-08-17T09:52:07.905Z,10600
2022-08-17T09:53:07.456Z,10900
2022-08-17T09:54:36.979Z,11080
2022-08-17T09:55:07.205Z,11100
2022-08-17T09:56:07.353Z,11000
2022-08-17T09:57:28.617Z,11000
2022-08-17T09:58:07.475Z,10000
2022-08-17T09:59:07.546Z,0
2022-08-17T10:00:08.538Z,10000
2022-08-17T10:01:07.252Z,10700
2022-08-17T10:02:07.815Z,10000
2022-08-17T10:03:07.472Z,10000
2022-08-17T10:04:07.977Z,0
2022-08-17T10:05:07.705Z,0
2022-08-17T10:06:07.163Z,0
2022-08-17T10:07:07.593Z,0
2022-08-17T10:08:07.177Z,14200
2022-08-17T10:09:07.755Z,14000
2022-08-17T10:10:13.574Z,10000
2022-08-17T10:11:08.007Z,10000
2022-08-17T10:12:07.483Z,0
2022-08-17T10:13:09.544Z,0
2022-08-17T10:14:35.988Z,0
2022-08-17T10:15:09.530Z,0
2022-08-17T10:16:07.526Z,20000
2022-08-17T10:17:08.137Z,0
2022-08-17T10:18:07.659Z,0
2022-08-17T10:19:07.169Z,0
2022-08-17T10:20:07.818Z,0
2022-08-17T10:21:07.542Z,0
2022-08-17T10:22:32.559Z,0
2022-08-17T10:23:07.689Z,0
2022-08-17T10:24:07.235Z,0
2022-08-17T10:25:23.768Z,0
2022-08-17T10:26:07.654Z,0
2022-08-17T10:27:07.385Z,0
2022-08-17T10:28:07.429Z,10000
2022-08-17T10:29:07.517Z,16000
2022-08-17T10:30:07.424Z,10000
2022-08-17T10:32:07.301Z,13245
2022-08-17T10:33:07.800Z,13200
2022-08-17T10:34:07.483Z,13000
2022-08-17T10:35:07.188Z,10000
2022-08-17T10:36:10.783Z,10000
2022-08-17T10:37:07.742Z,0
2022-08-17T10:38:07.521Z,10000
2022-08-17T10:39:07.344Z,20000
2022-08-17T10:40:08.137Z,0
2022-08-17T10:41:07.375Z,0
2022-08-17T10:42:07.836Z,0
2022-08-17T10:43:07.339Z,0
2022-08-17T10:44:40.784Z,0
2022-08-17T10:45:07.777Z,0
2022-08-17T10:46:27.679Z,0
2022-08-17T10:47:07.618Z,0
2022-08-17T10:48:07.794Z,0
2022-08-17T10:49:07.390Z,0
2022-08-17T10:50:07.562Z,0
2022-08-17T10:51:07.322Z,0
2022-08-17T10:52:07.222Z,10000
2022-08-17T10:53:08.040Z,17000
2022-08-17T10:54:07.638Z,10000
2022-08-17T10:55:07.160Z,0
2022-08-17T10:56:07.045Z,10000
2022-08-17T10:57:07.489Z,14000
2022-08-17T10:58:07.282Z,14000
2022-08-17T10:59:07.829Z,10000
2022-08-17T11:00:07.968Z,0
2022-08-17T11:01:07.535Z,0
2022-08-17T11:02:07.474Z,0
2022-08-17T11:03:07.289Z,10000
2022-08-17T11:04:07.044Z,0
2022-08-17T11:05:07.874Z,0
2022-08-17T11:06:07.546Z,10000
2022-08-17T11:07:07.467Z,10000
2022-08-17T11:08:08.092Z,10000
2022-08-17T11:09:08.116Z,10000
2022-08-17T11:10:07.886Z,0
2022-08-17T11:11:07.530Z,10000
2022-08-17T11:12:07.263Z,15000
2022-08-17T11:13:08.315Z,15400
2022-08-17T11:14:07.871Z,10000
2022-08-17T11:15:07.953Z,0
2022-08-17T11:16:12.666Z,0
2022-08-17T11:17:07.306Z,0
2022-08-17T11:18:08.027Z,30000
2022-08-17T11:19:07.646Z,0
2022-08-17T11:20:07.771Z,0
2022-08-17T11:21:07.509Z,30000
2022-08-17T11:22:07.498Z,0
2022-08-17T11:23:07.909Z,0
2022-08-17T11:24:07.627Z,0
2022-08-17T11:25:07.210Z,0
2022-08-17T11:26:07.859Z,0
2022-08-17T11:27:07.660Z,0
2022-08-17T11:28:07.737Z,0
2022-08-17T11:29:07.712Z,0
2022-08-17T11:30:08.972Z,0
2022-08-17T11:31:08.399Z,0
2022-08-17T11:32:07.773Z,0
2022-08-17T11:33:07.336Z,0
2022-08-17T11:34:07.575Z,0
2022-08-17T11:35:07.200Z,0
2022-08-17T11:36:21.598Z,0
2022-08-17T11:37:07.347Z,0
2022-08-17T11:38:09.698Z,0
2022-08-17T11:39:07.794Z,10000
2022-08-17T11:40:21.350Z,0
2022-08-17T11:41:07.395Z,10000
2022-08-17T11:42:08.243Z,9000
2022-08-17T11:43:08.199Z,9000
2022-08-17T11:44:07.767Z,9100
2022-08-17T11:45:08.231Z,9000
2022-08-17T11:46:07.708Z,9600
2022-08-17T11:47:07.495Z,9600
2022-08-17T11:48:27.256Z,0
2022-08-17T11:49:07.892Z,9060
2022-08-17T11:50:07.976Z,9100
2022-08-17T11:51:07.839Z,9200
2022-08-17T11:52:07.772Z,9400
2022-08-17T11:53:07.401Z,9600
2022-08-17T11:54:31.874Z,9000
2022-08-17T11:55:31.784Z,10000
2022-08-17T11:56:07.866Z,10000
2022-08-17T11:57:07.900Z,10000
2022-08-17T11:58:07.109Z,12000
2022-08-17T11:59:07.461Z,11000
2022-08-17T12:00:07.957Z,11510
2022-08-17T12:01:07.718Z,11000
2022-08-17T12:02:07.283Z,10000
2022-08-17T12:03:07.985Z,0
2022-08-17T12:04:07.737Z,0
2022-08-17T12:05:09.713Z,0
2022-08-17T12:06:30.287Z,0
2022-08-17T12:07:07.429Z,0
2022-08-17T12:08:08.139Z,0
2022-08-17T12:09:08.209Z,0
2022-08-17T12:10:07.891Z,24000
2022-08-17T12:11:07.379Z,20000
2022-08-17T12:12:13.000Z,20000
2022-08-17T12:13:07.550Z,20000
2022-08-17T12:14:07.339Z,10000
2022-08-17T12:15:10.961Z,0
2022-08-17T12:16:07.931Z,10000
2022-08-17T12:17:07.801Z,10000
2022-08-17T12:18:07.931Z,10000
2022-08-17T12:19:07.413Z,0
2022-08-17T12:20:08.111Z,0
2022-08-17T12:21:07.742Z,0
2022-08-17T12:22:07.293Z,0
2022-08-17T12:23:08.269Z,10000
2022-08-17T12:24:07.178Z,10000
2022-08-17T12:25:08.297Z,10000
2022-08-17T12:26:07.872Z,13000
2022-08-17T12:27:07.256Z,12000
2022-08-17T12:28:07.882Z,13000
2022-08-17T12:29:09.393Z,14000
2022-08-17T12:30:07.687Z,0
2022-08-17T12:31:07.385Z,0
2022-08-17T12:32:07.808Z,10000
2022-08-17T12:33:07.183Z,10000
2022-08-17T12:34:07.909Z,13200
2022-08-17T12:35:07.234Z,10000
2022-08-17T12:36:07.966Z,10000
2022-08-17T12:37:07.597Z,0
2022-08-17T12:38:07.092Z,0
2022-08-17T12:39:14.582Z,0
2022-08-17T12:40:07.717Z,0
2022-08-17T12:41:07.626Z,0
2022-08-17T12:42:07.611Z,0
2022-08-17T12:43:07.929Z,0
2022-08-17T12:44:07.717Z,0
2022-08-17T12:45:07.533Z,0
2022-08-17T12:46:13.127Z,0
2022-08-17T12:47:07.925Z,0
2022-08-17T12:48:07.503Z,0
2022-08-17T12:49:07.612Z,10000
2022-08-17T12:50:07.602Z,10000
2022-08-17T12:51:08.000Z,0
2022-08-17T12:52:07.869Z,0
2022-08-17T12:53:07.406Z,0
2022-08-17T12:54:07.248Z,0
2022-08-17T12:55:07.797Z,10000
2022-08-17T12:56:07.725Z,10000
2022-08-17T12:57:07.645Z,15400
2022-08-17T12:58:13.610Z,10000
2022-08-17T12:59:08.020Z,10000
2022-08-17T13:00:08.220Z,0
2022-08-17T13:01:07.901Z,0
2022-08-17T13:02:07.890Z,10000
2022-08-17T13:03:07.682Z,11300
2022-08-17T13:04:08.102Z,11100
2022-08-17T13:05:07.843Z,11100
2022-08-17T13:06:07.573Z,10000
2022-08-17T13:07:07.103Z,10400
2022-08-17T13:08:07.801Z,10000
2022-08-17T13:09:07.825Z,10090
2022-08-17T13:10:07.325Z,9900
2022-08-17T13:11:08.088Z,9000
2022-08-17T13:12:07.992Z,8000
2022-08-17T13:13:08.004Z,8000
2022-08-17T13:14:08.416Z,8000
2022-08-17T13:15:08.042Z,7950
2022-08-17T13:16:07.862Z,7000
2022-08-17T13:17:12.834Z,7000
2022-08-17T13:18:07.668Z,6800
2022-08-17T13:19:07.614Z,6000
2022-08-17T13:20:08.197Z,0
2022-08-17T13:21:08.538Z,0
2022-08-17T13:22:08.147Z,9000
2022-08-17T13:23:12.342Z,8800
2022-08-17T13:24:08.098Z,9000
2022-08-17T13:25:08.713Z,8000
2022-08-17T13:26:08.004Z,0
2022-08-17T13:27:08.801Z,6000
2022-08-17T13:28:07.873Z,6000
2022-08-17T13:29:08.386Z,5000
2022-08-17T13:30:07.916Z,5000
2022-08-17T13:31:08.629Z,4000
2022-08-17T13:32:08.526Z,4590
2022-08-17T13:33:07.899Z,4000
2022-08-17T13:34:08.498Z,5200
2022-08-17T13:35:14.911Z,5200
2022-08-17T13:36:08.198Z,5100